createdAt,value
2019-02-15T00:00:51.134Z,73.08
2019-02-15T00:01:51.121Z,72.98
2019-02-15T00:02:51.112Z,73.19
2019-02-15T00:03:52.040Z,73.39
2019-02-15T00:04:51.109Z,73.19
2019-02-15T00:05:51.082Z,73.19
2019-02-15T00:06:51.082Z,73.19
2019-02-15T00:07:51.086Z,73.50
2019-02-15T00:08:51.043Z,73.29
2019-02-15T00:09:51.102Z,73.60
2019-02-15T00:10:51.022Z,73.91
2019-02-15T00:11:51.013Z,73.81
2019-02-15T00:12:50.998Z,74.02
2019-02-15T00:13:50.990Z,73.01
2019-02-15T00:14:50.975Z,73.74
2019-02-15T00:15:51.000Z,73.81
2019-02-15T00:16:51.268Z,73.84
2019-02-15T00:17:50.989Z,74.26
2019-02-15T00:18:50.979Z,74.26
2019-02-15T00:19:50.919Z,74.15
2019-02-15T00:20:50.947Z,73.94
2019-02-15T00:21:50.898Z,74.77
2019-02-15T00:22:50.888Z,74.15
2019-02-15T00:23:50.876Z,74.50
2019-02-15T00:24:50.883Z,74.67
2019-02-15T00:25:50.855Z,74.26
2019-02-15T00:26:50.844Z,74.40
2019-02-15T00:27:50.837Z,74.40
2019-02-15T00:28:50.835Z,74.26
2019-02-15T00:29:50.816Z,74.46
2019-02-15T00:30:50.803Z,74.57
2019-02-15T00:31:50.828Z,74.91
2019-02-15T00:32:50.786Z,74.50
2019-02-15T00:33:50.774Z,75.22
2019-02-15T00:34:50.763Z,74.60
2019-02-15T00:35:50.753Z,74.71
2019-02-15T00:36:50.779Z,74.71
2019-02-15T00:37:50.781Z,74.81
2019-02-15T00:38:50.723Z,74.81
2019-02-15T00:39:50.703Z,74.81
2019-02-15T00:40:50.695Z,74.91
2019-02-15T00:41:50.691Z,75.02
2019-02-15T00:42:50.687Z,75.32
2019-02-15T00:43:50.665Z,74.71
2019-02-15T00:44:50.672Z,74.60
2019-02-15T00:45:50.643Z,74.71
2019-02-15T00:46:50.634Z,75.02
2019-02-15T00:47:50.693Z,74.91
2019-02-15T00:48:50.612Z,75.46
2019-02-15T00:49:50.597Z,75.15
2019-02-15T00:50:50.592Z,75.46
2019-02-15T00:51:50.574Z,76.19
2019-02-15T00:52:50.569Z,75.98
2019-02-15T00:53:50.588Z,75.78
2019-02-15T00:54:50.603Z,75.67
2019-02-15T00:55:50.530Z,75.67
2019-02-15T00:56:50.522Z,75.36
2019-02-15T00:57:50.508Z,76.71
2019-02-15T00:58:50.532Z,75.88
2019-02-15T00:59:50.532Z,75.46
2019-02-15T01:00:50.483Z,75.53
2019-02-15T01:01:50.471Z,76.81
2019-02-15T01:02:50.460Z,77.12
2019-02-15T01:03:50.519Z,76.50
2019-02-15T01:04:50.439Z,75.46
2019-02-15T01:05:50.422Z,75.78
2019-02-15T01:06:50.415Z,75.78
2019-02-15T01:07:50.407Z,76.19
2019-02-15T01:08:50.392Z,75.67
2019-02-15T01:09:50.456Z,76.50
2019-02-15T01:10:50.375Z,76.50
2019-02-15T01:11:50.359Z,76.50
2019-02-15T01:12:50.348Z,76.71
2019-02-15T01:13:50.336Z,75.88
2019-02-15T01:14:50.342Z,76.09
2019-02-15T01:15:50.314Z,75.78
2019-02-15T01:16:50.308Z,76.19
2019-02-15T01:17:50.297Z,75.88
2019-02-15T01:18:50.283Z,75.88
2019-02-15T01:19:50.271Z,75.46
2019-02-15T01:20:50.275Z,75.05
2019-02-15T01:21:50.269Z,75.36
2019-02-15T01:22:50.239Z,75.36
2019-02-15T01:23:50.233Z,75.57
2019-02-15T01:24:50.276Z,76.33
2019-02-15T01:25:50.208Z,75.46
2019-02-15T01:26:50.200Z,75.29
2019-02-15T01:27:50.188Z,75.40
2019-02-15T01:28:50.178Z,74.95
2019-02-15T01:29:50.175Z,75.26
2019-02-15T01:30:50.171Z,75.26
2019-02-15T01:31:50.217Z,75.57
2019-02-15T01:32:50.134Z,74.95
2019-02-15T01:33:50.129Z,75.46
2019-02-15T01:34:50.113Z,75.40
2019-02-15T01:35:50.901Z,75.71
2019-02-15T01:36:50.107Z,75.57
2019-02-15T01:37:50.100Z,75.50
2019-02-15T01:38:50.066Z,75.29
2019-02-15T01:39:50.055Z,75.40
2019-02-15T01:40:50.044Z,75.40
2019-02-15T01:41:50.036Z,74.98
2019-02-15T01:42:50.057Z,75.40
2019-02-15T01:43:50.014Z,75.60
2019-02-15T01:44:49.999Z,76.02
2019-02-15T01:45:49.994Z,75.67
2019-02-15T01:46:50.033Z,75.78
2019-02-15T01:47:49.968Z,75.81
2019-02-15T01:48:49.964Z,75.81
2019-02-15T01:49:49.947Z,75.81
2019-02-15T01:50:49.943Z,76.23
2019-02-15T01:51:49.927Z,76.12
2019-02-15T01:52:49.943Z,75.92
2019-02-15T01:53:49.981Z,76.12
2019-02-15T01:54:49.893Z,75.71
2019-02-15T01:55:49.883Z,75.60
2019-02-15T01:56:49.877Z,76.02
2019-02-15T01:57:49.859Z,75.92
2019-02-15T01:58:49.943Z,76.23
2019-02-15T01:59:49.838Z,76.75
2019-02-15T02:00:49.829Z,77.06
2019-02-15T02:01:49.819Z,76.95
2019-02-15T02:02:49.878Z,77.16
2019-02-15T02:03:49.796Z,76.75
2019-02-15T02:04:49.786Z,77.16
2019-02-15T02:05:49.773Z,77.20
2019-02-15T02:06:49.769Z,76.95
2019-02-15T02:07:49.753Z,77.40
2019-02-15T02:08:49.778Z,76.95
2019-02-15T02:09:49.736Z,76.99
2019-02-15T02:10:49.719Z,77.26
2019-02-15T02:11:49.714Z,77.06
2019-02-15T02:12:49.730Z,77.06
2019-02-15T02:13:50.142Z,77.61
2019-02-15T02:14:49.680Z,77.16
2019-02-15T02:15:49.665Z,76.99
2019-02-15T02:16:49.659Z,76.99
2019-02-15T02:17:49.648Z,76.95
2019-02-15T02:18:49.639Z,77.16
2019-02-15T02:19:49.639Z,77.61
2019-02-15T02:20:49.612Z,76.64
2019-02-15T02:21:49.638Z,75.50
2019-02-15T02:22:49.596Z,76.23
2019-02-15T02:23:49.588Z,75.71
2019-02-15T02:24:49.574Z,75.92
2019-02-15T02:25:49.558Z,76.02
2019-02-15T02:26:49.548Z,75.85
2019-02-15T02:27:49.561Z,76.47
2019-02-15T02:28:49.526Z,76.78
2019-02-15T02:29:49.539Z,76.64
2019-02-15T02:30:49.512Z,76.26
2019-02-15T02:31:49.630Z,76.57
2019-02-15T02:32:49.505Z,76.78
2019-02-15T02:33:49.477Z,77.30
2019-02-15T02:34:49.459Z,76.99
2019-02-15T02:35:49.451Z,77.20
2019-02-15T02:36:49.441Z,76.99
2019-02-15T02:37:49.428Z,77.23
2019-02-15T02:38:49.442Z,77.44
2019-02-15T02:39:49.414Z,76.92
2019-02-15T02:40:49.529Z,76.61
2019-02-15T02:41:49.405Z,76.50
2019-02-15T02:42:49.378Z,76.71
2019-02-15T02:43:59.189Z,76.29
2019-02-15T02:44:50.351Z,75.67
2019-02-15T02:45:49.353Z,75.54
2019-02-15T02:46:49.330Z,75.78
2019-02-15T02:47:49.323Z,75.78
2019-02-15T02:48:49.315Z,75.95
2019-02-15T02:49:49.342Z,75.88
2019-02-15T02:50:49.296Z,75.98
2019-02-15T02:51:49.278Z,75.54
2019-02-15T02:52:49.265Z,75.88
2019-02-15T02:53:49.252Z,75.57
2019-02-15T02:54:49.247Z,76.71
2019-02-15T02:55:49.277Z,77.12
2019-02-15T02:56:49.241Z,76.81
2019-02-15T02:57:49.214Z,77.23
2019-02-15T02:59:15.518Z,77.44
2019-02-15T02:59:49.191Z,77.54
2019-02-15T03:00:49.181Z,77.33
2019-02-15T03:01:49.191Z,77.85
2019-02-15T03:02:49.161Z,77.54
2019-02-15T03:03:49.149Z,77.68
2019-02-15T03:04:49.138Z,77.44
2019-02-15T03:05:49.123Z,77.02
2019-02-15T03:06:49.162Z,77.02
2019-02-15T03:07:49.106Z,77.02
2019-02-15T03:08:49.101Z,76.92
2019-02-15T03:09:49.080Z,77.33
2019-02-15T03:10:49.077Z,77.16
2019-02-15T03:11:49.069Z,77.02
2019-02-15T03:12:49.053Z,77.26
2019-02-15T03:13:49.042Z,77.68
2019-02-15T03:14:49.075Z,77.44
2019-02-15T03:15:49.017Z,77.78
2019-02-15T03:16:49.008Z,77.99
2019-02-15T03:17:48.998Z,77.47
2019-02-15T03:18:49.014Z,77.58
2019-02-15T03:19:48.979Z,77.99
2019-02-15T03:20:48.980Z,77.89
2019-02-15T03:21:48.958Z,77.78
2019-02-15T03:22:49.010Z,77.78
2019-02-15T03:23:49.002Z,77.89
2019-02-15T03:24:49.918Z,77.78
2019-02-15T03:25:48.944Z,78.20
2019-02-15T03:26:48.894Z,78.20
2019-02-15T03:27:48.884Z,77.99
2019-02-15T03:28:48.910Z,78.20
2019-02-15T03:29:48.863Z,78.20
2019-02-15T03:30:48.854Z,78.20
2019-02-15T03:31:48.854Z,77.78
2019-02-15T03:32:48.835Z,78.09
2019-02-15T03:33:48.824Z,77.89
2019-02-15T03:34:48.808Z,77.89
2019-02-15T03:35:48.803Z,77.89
2019-02-15T03:36:48.824Z,77.89
2019-02-15T03:37:48.779Z,77.72
2019-02-15T03:38:48.762Z,77.82
2019-02-15T03:39:48.808Z,77.61
2019-02-15T03:40:48.745Z,77.78
2019-02-15T03:41:48.736Z,77.72
2019-02-15T03:42:48.723Z,77.89
2019-02-15T03:43:48.710Z,77.61
2019-02-15T03:44:48.704Z,77.61
2019-02-15T03:45:48.808Z,78.03
2019-02-15T03:46:48.700Z,77.92
2019-02-15T03:47:48.672Z,77.92
2019-02-15T03:48:48.663Z,77.92
2019-02-15T03:49:48.646Z,77.92
2019-02-15T03:50:48.635Z,78.13
2019-02-15T03:51:49.144Z,77.92
2019-02-15T03:52:48.995Z,77.82
2019-02-15T03:53:48.602Z,77.51
2019-02-15T03:54:48.594Z,77.61
2019-02-15T03:55:48.605Z,77.61
2019-02-15T03:56:48.567Z,77.61
2019-02-15T03:57:48.578Z,78.03
2019-02-15T03:58:48.552Z,76.99
2019-02-15T03:59:48.539Z,77.82
2019-02-15T04:00:48.603Z,77.51
2019-02-15T04:01:48.514Z,77.51
2019-02-15T04:02:48.506Z,77.51
2019-02-15T04:03:48.499Z,77.72
2019-02-15T04:04:48.483Z,77.82
2019-02-15T04:05:48.474Z,77.51
2019-02-15T04:06:48.496Z,77.92
2019-02-15T04:07:48.982Z,77.92
2019-02-15T04:08:48.438Z,77.51
2019-02-15T04:09:48.429Z,77.92
2019-02-15T04:10:48.430Z,78.23
2019-02-15T04:11:48.409Z,77.72
2019-02-15T04:12:48.439Z,78.17
2019-02-15T04:13:48.386Z,77.86
2019-02-15T04:14:48.375Z,78.03
2019-02-15T04:15:48.360Z,77.96
2019-02-15T04:16:48.354Z,77.92
2019-02-15T04:17:48.385Z,77.86
2019-02-15T04:18:48.332Z,77.92
2019-02-15T04:19:49.888Z,77.75
2019-02-15T04:20:48.308Z,77.86
2019-02-15T04:21:48.299Z,77.96
2019-02-15T04:22:48.303Z,78.23
2019-02-15T04:23:48.277Z,78.03
2019-02-15T04:24:48.274Z,78.06
2019-02-15T04:25:48.251Z,77.96
2019-02-15T04:26:48.249Z,78.06
2019-02-15T04:27:48.330Z,77.75
2019-02-15T04:28:48.224Z,77.55
2019-02-15T04:29:48.213Z,78.27
2019-02-15T04:30:48.195Z,78.58
2019-02-15T04:31:48.186Z,78.58
2019-02-15T04:32:48.185Z,78.38
2019-02-15T04:33:48.212Z,78.69
2019-02-15T04:34:48.157Z,78.93
2019-02-15T04:35:48.143Z,78.89
2019-02-15T04:36:48.131Z,78.58
2019-02-15T04:37:48.126Z,79.00
2019-02-15T04:38:48.143Z,78.79
2019-02-15T04:39:48.136Z,78.89
2019-02-15T04:40:48.087Z,79.00
2019-02-15T04:41:48.082Z,78.89
2019-02-15T04:42:48.065Z,78.89
2019-02-15T04:43:48.081Z,78.93
2019-02-15T04:44:48.050Z,79.00
2019-02-15T04:45:48.043Z,79.00
2019-02-15T04:46:50.022Z,79.00
2019-02-15T04:47:48.016Z,78.69
2019-02-15T04:48:48.036Z,78.79
2019-02-15T04:49:48.023Z,78.83
2019-02-15T04:50:47.978Z,78.79
2019-02-15T04:51:47.968Z,78.79
2019-02-15T04:52:47.962Z,78.79
2019-02-15T04:53:47.959Z,78.58
2019-02-15T04:54:47.963Z,79.72
2019-02-15T04:55:47.940Z,79.72
2019-02-15T04:56:47.922Z,79.31
2019-02-15T04:57:47.904Z,79.52
2019-02-15T04:58:47.897Z,79.76
2019-02-15T04:59:47.886Z,79.62
2019-02-15T05:00:47.942Z,79.76
2019-02-15T05:01:47.863Z,79.21
2019-02-15T05:02:47.848Z,78.48
2019-02-15T05:03:47.843Z,78.52
2019-02-15T05:04:47.829Z,78.72
2019-02-15T05:05:47.820Z,78.89
2019-02-15T05:06:47.819Z,78.62
2019-02-15T05:07:47.798Z,78.62
2019-02-15T05:08:47.786Z,78.52
2019-02-15T05:09:47.773Z,79.24
2019-02-15T05:10:47.871Z,79.66
2019-02-15T05:11:47.773Z,79.66
2019-02-15T05:12:47.739Z,79.76
2019-02-15T05:13:47.731Z,79.76
2019-02-15T05:14:52.988Z,78.62
2019-02-15T05:15:48.722Z,78.93
2019-02-15T05:16:47.696Z,78.83
2019-02-15T05:17:47.731Z,79.03
2019-02-15T05:18:47.680Z,78.93
2019-02-15T05:19:47.663Z,78.72
2019-02-15T05:20:47.657Z,79.76
2019-02-15T05:21:47.640Z,79.66
2019-02-15T05:22:47.669Z,79.35
2019-02-15T05:23:47.620Z,79.45
2019-02-15T05:24:47.608Z,79.97
2019-02-15T05:25:47.602Z,79.87
2019-02-15T05:26:47.595Z,79.97
2019-02-15T05:27:47.579Z,79.87
2019-02-15T05:28:47.597Z,80.08
2019-02-15T05:29:47.553Z,80.08
2019-02-15T05:30:47.548Z,79.97
2019-02-15T05:31:47.535Z,80.08
2019-02-15T05:32:47.523Z,80.08
2019-02-15T05:33:47.549Z,80.08
2019-02-15T05:34:47.508Z,79.97
2019-02-15T05:35:47.498Z,79.97
2019-02-15T05:36:47.483Z,80.18
2019-02-15T05:37:47.472Z,80.18
2019-02-15T05:38:47.462Z,80.08
2019-02-15T05:39:47.483Z,80.22
2019-02-15T05:40:47.435Z,80.43
2019-02-15T05:41:47.423Z,80.11
2019-02-15T05:42:47.413Z,80.18
2019-02-15T05:43:47.402Z,80.08
2019-02-15T05:44:47.439Z,80.08
2019-02-15T05:45:54.943Z,80.08
2019-02-15T05:46:47.368Z,79.66
2019-02-15T05:47:47.356Z,79.87
2019-02-15T05:48:47.352Z,80.22
2019-02-15T05:49:47.347Z,80.18
2019-02-15T05:50:47.358Z,80.08
2019-02-15T05:51:47.692Z,80.18
2019-02-15T05:52:47.310Z,79.45
2019-02-15T05:53:47.303Z,79.35
2019-02-15T05:54:47.294Z,79.45
2019-02-15T05:55:47.301Z,79.55
2019-02-15T05:56:47.259Z,79.45
2019-02-15T05:57:47.254Z,79.66
2019-02-15T05:58:47.237Z,79.35
2019-02-15T05:59:47.239Z,79.35
2019-02-15T06:00:47.251Z,79.35
2019-02-15T06:01:47.224Z,79.14
2019-02-15T06:02:47.199Z,79.45
2019-02-15T06:03:47.343Z,79.55
2019-02-15T06:04:47.979Z,80.29
2019-02-15T06:05:48.047Z,79.87
2019-02-15T06:06:47.194Z,79.87
2019-02-15T06:07:47.141Z,79.87
2019-02-15T06:08:47.129Z,79.87
2019-02-15T06:09:47.127Z,79.97
2019-02-15T06:10:47.341Z,79.87
2019-02-15T06:11:47.249Z,80.18
2019-02-15T06:12:47.133Z,79.91
2019-02-15T06:13:47.083Z,80.18
2019-02-15T06:14:47.063Z,80.11
2019-02-15T06:15:47.056Z,80.49
2019-02-15T06:16:47.127Z,80.43
2019-02-15T06:17:47.043Z,79.91
2019-02-15T06:18:47.113Z,79.76
2019-02-15T06:19:47.018Z,80.18
2019-02-15T06:20:47.042Z,79.35
2019-02-15T06:21:46.995Z,79.14
2019-02-15T06:22:46.981Z,79.66
2019-02-15T06:23:47.019Z,78.62
2019-02-15T06:24:46.954Z,78.83
2019-02-15T06:25:46.974Z,78.93
2019-02-15T06:26:47.073Z,79.14
2019-02-15T06:27:46.928Z,79.24
2019-02-15T06:28:46.916Z,78.62
2019-02-15T06:29:46.948Z,78.83
2019-02-15T06:30:46.892Z,78.93
2019-02-15T06:31:47.113Z,78.93
2019-02-15T06:32:46.873Z,78.83
2019-02-15T06:33:46.882Z,78.93
2019-02-15T06:34:46.852Z,78.62
2019-02-15T06:35:46.844Z,78.93
2019-02-15T06:36:46.831Z,79.24
2019-02-15T06:37:46.821Z,78.93
2019-02-15T06:38:46.806Z,78.93
2019-02-15T06:39:46.828Z,78.93
2019-02-15T06:40:46.807Z,78.93
2019-02-15T06:41:46.771Z,78.93
2019-02-15T06:42:46.760Z,78.93
2019-02-15T06:43:46.751Z,78.93
2019-02-15T06:44:46.779Z,78.93
2019-02-15T06:45:46.978Z,79.03
2019-02-15T06:46:46.717Z,78.83
2019-02-15T06:47:46.711Z,79.03
2019-02-15T06:48:46.702Z,78.93
2019-02-15T06:49:46.696Z,78.93
2019-02-15T06:50:46.679Z,78.93
2019-02-15T06:51:46.774Z,78.72
2019-02-15T06:52:46.658Z,78.52
2019-02-15T06:53:46.641Z,79.55
2019-02-15T06:54:46.655Z,79.45
2019-02-15T06:55:46.673Z,79.55
2019-02-15T06:56:46.611Z,79.55
2019-02-15T06:57:46.599Z,79.76
2019-02-15T06:58:46.590Z,79.45
2019-02-15T06:59:46.573Z,79.45
2019-02-15T07:00:46.589Z,78.62
2019-02-15T07:01:46.553Z,78.83
2019-02-15T07:02:46.543Z,78.79
2019-02-15T07:03:46.543Z,78.79
2019-02-15T07:04:46.524Z,78.89
2019-02-15T07:05:46.536Z,79.14
2019-02-15T07:06:46.498Z,78.89
2019-02-15T07:07:46.492Z,79.10
2019-02-15T07:08:46.480Z,78.83
2019-02-15T07:09:46.472Z,78.89
2019-02-15T07:10:46.460Z,79.03
2019-02-15T07:11:46.473Z,78.79
2019-02-15T07:12:46.439Z,78.69
2019-02-15T07:13:46.421Z,79.10
2019-02-15T07:14:46.411Z,79.21
2019-02-15T07:15:46.405Z,78.89
2019-02-15T07:16:46.388Z,79.10
2019-02-15T07:17:46.388Z,79.00
2019-02-15T07:18:46.373Z,79.00
2019-02-15T07:19:46.361Z,78.93
2019-02-15T07:20:46.358Z,78.52
2019-02-15T07:21:46.335Z,79.41
2019-02-15T07:22:46.339Z,78.72
2019-02-15T07:23:46.312Z,78.83
2019-02-15T07:24:47.278Z,78.89
2019-02-15T07:25:46.294Z,79.14
2019-02-15T07:26:46.285Z,79.10
2019-02-15T07:27:46.319Z,79.00
2019-02-15T07:28:46.259Z,78.79
2019-02-15T07:29:46.250Z,79.00
2019-02-15T07:30:46.237Z,78.89
2019-02-15T07:31:46.496Z,79.10
2019-02-15T07:32:46.239Z,78.79
2019-02-15T07:33:46.209Z,78.58
2019-02-15T07:34:46.217Z,78.48
2019-02-15T07:35:46.190Z,78.75
2019-02-15T07:36:47.789Z,78.86
2019-02-15T07:37:46.166Z,78.86
2019-02-15T07:38:46.205Z,78.86
2019-02-15T07:39:46.145Z,78.75
2019-02-15T07:40:46.128Z,78.69
2019-02-15T07:41:46.120Z,78.65
2019-02-15T07:42:46.108Z,78.34
2019-02-15T07:43:46.101Z,78.34
2019-02-15T07:44:46.098Z,77.92
2019-02-15T07:45:46.082Z,78.03
2019-02-15T07:46:46.063Z,77.82
2019-02-15T07:47:46.060Z,77.72
2019-02-15T07:48:46.088Z,77.72
2019-02-15T07:49:46.035Z,77.82
2019-02-15T07:50:46.024Z,77.72
2019-02-15T07:51:46.013Z,77.72
2019-02-15T07:52:45.997Z,77.61
2019-02-15T07:53:45.993Z,77.82
2019-02-15T07:54:45.990Z,77.78
2019-02-15T07:55:45.974Z,77.78
2019-02-15T07:56:45.977Z,77.68
2019-02-15T07:57:45.943Z,77.16
2019-02-15T07:58:45.937Z,77.37
2019-02-15T07:59:45.926Z,77.02
2019-02-15T08:00:45.950Z,77.02
2019-02-15T08:01:45.929Z,75.67
2019-02-15T08:02:46.033Z,76.29
2019-02-15T08:03:45.876Z,75.98
2019-02-15T08:04:45.909Z,76.09
2019-02-15T08:05:45.888Z,75.88
2019-02-15T08:06:45.880Z,75.78
2019-02-15T08:07:45.891Z,76.19
2019-02-15T08:08:45.912Z,75.85
2019-02-15T08:09:45.820Z,75.74
2019-02-15T08:10:45.898Z,76.06
2019-02-15T08:11:45.795Z,75.43
2019-02-15T08:12:45.790Z,75.43
2019-02-15T08:13:45.777Z,75.50
2019-02-15T08:14:45.763Z,74.77
2019-02-15T08:15:51.488Z,74.77
2019-02-15T08:16:46.748Z,74.88
2019-02-15T08:17:46.092Z,75.19
2019-02-15T08:18:45.753Z,75.33
2019-02-15T08:19:45.703Z,75.40
2019-02-15T08:20:45.698Z,75.19
2019-02-15T08:21:45.757Z,75.40
2019-02-15T08:22:45.676Z,75.50
2019-02-15T08:23:45.664Z,75.09
2019-02-15T08:24:45.650Z,75.50
2019-02-15T08:25:45.647Z,75.40
2019-02-15T08:26:45.633Z,75.19
2019-02-15T08:27:45.660Z,74.98
2019-02-15T08:28:45.611Z,74.32
2019-02-15T08:29:45.593Z,74.43
2019-02-15T08:30:45.591Z,74.53
2019-02-15T08:31:45.579Z,74.43
2019-02-15T08:32:45.608Z,73.46
2019-02-15T08:33:45.553Z,73.05
2019-02-15T08:34:45.540Z,72.74
2019-02-15T08:35:45.534Z,72.63
2019-02-15T08:36:45.525Z,71.80
2019-02-15T08:37:45.580Z,71.49
2019-02-15T08:38:45.503Z,71.15
2019-02-15T08:39:45.487Z,70.60
2019-02-15T08:40:45.479Z,71.04
2019-02-15T08:42:00.611Z,70.29
2019-02-15T08:42:46.574Z,70.39
2019-02-15T08:43:45.444Z,69.98
2019-02-15T08:44:45.435Z,69.87
2019-02-15T08:45:45.427Z,69.95
2019-02-15T08:46:45.416Z,69.43
2019-02-15T08:47:45.427Z,68.80
2019-02-15T08:48:46.420Z,69.01
2019-02-15T08:49:45.415Z,69.22
2019-02-15T08:50:45.368Z,69.01
2019-02-15T08:51:45.362Z,69.09
2019-02-15T08:52:45.351Z,68.43
2019-02-15T08:53:45.338Z,67.82
2019-02-15T08:54:45.374Z,67.19
2019-02-15T08:55:45.310Z,67.47
2019-02-15T08:56:45.323Z,66.61
2019-02-15T08:57:45.291Z,66.48
2019-02-15T08:58:45.317Z,64.62
2019-02-15T08:59:45.272Z,64.39
2019-02-15T09:00:45.292Z,63.71
2019-02-15T09:01:45.251Z,62.44
2019-02-15T09:02:45.243Z,61.18
2019-02-15T09:03:45.228Z,60.77
2019-02-15T09:04:45.225Z,60.19
2019-02-15T09:05:45.507Z,58.96
2019-02-15T09:06:45.193Z,58.31
2019-02-15T09:07:45.187Z,58.29
2019-02-15T09:08:45.181Z,58.36
2019-02-15T09:09:45.163Z,56.93
2019-02-15T09:10:45.183Z,57.10
2019-02-15T09:11:45.136Z,56.46
2019-02-15T09:12:45.125Z,55.30
2019-02-15T09:13:45.118Z,55.10
2019-02-15T09:14:45.109Z,54.87
2019-02-15T09:15:45.151Z,53.72
2019-02-15T09:16:45.085Z,52.80
2019-02-15T09:17:45.072Z,52.56
2019-02-15T09:18:45.065Z,52.85
2019-02-15T09:19:45.082Z,52.54
2019-02-15T09:20:45.040Z,52.44
2019-02-15T09:21:45.112Z,52.21
2019-02-15T09:22:45.021Z,51.37
2019-02-15T09:23:45.003Z,50.01
2019-02-15T09:24:44.994Z,49.71
2019-02-15T09:25:44.986Z,49.50
2019-02-15T09:26:44.973Z,49.17
2019-02-15T09:27:44.996Z,48.46
2019-02-15T09:28:44.949Z,47.41
2019-02-15T09:29:44.946Z,47.92
2019-02-15T09:30:44.929Z,47.69
2019-02-15T09:31:44.924Z,47.80
2019-02-15T09:32:44.906Z,46.67
2019-02-15T09:33:44.914Z,46.86
2019-02-15T09:34:44.915Z,46.55
2019-02-15T09:35:44.874Z,45.51
2019-02-15T09:36:44.860Z,46.33
2019-02-15T09:37:44.864Z,46.12
2019-02-15T09:38:44.930Z,44.78
2019-02-15T09:39:44.831Z,45.87
2019-02-15T09:40:44.825Z,44.57
2019-02-15T09:41:44.811Z,45.26
2019-02-15T09:42:44.796Z,44.45
2019-02-15T09:43:44.828Z,44.53
2019-02-15T09:44:44.800Z,44.32
2019-02-15T09:45:44.767Z,44.02
2019-02-15T09:46:44.776Z,43.91
2019-02-15T09:47:44.746Z,43.71
2019-02-15T09:48:44.741Z,43.49
2019-02-15T09:49:46.737Z,43.08
2019-02-15T09:50:44.748Z,43.59
2019-02-15T09:51:45.489Z,42.88
2019-02-15T09:52:45.495Z,43.49
2019-02-15T09:53:44.716Z,42.27
2019-02-15T09:54:44.664Z,42.57
2019-02-15T09:55:44.656Z,42.55
2019-02-15T09:56:44.648Z,41.74
2019-02-15T09:57:44.632Z,41.33
2019-02-15T09:58:44.627Z,41.53
2019-02-15T09:59:44.634Z,41.82
2019-02-15T10:00:44.599Z,41.92
2019-02-15T10:01:44.588Z,41.52
2019-02-15T10:02:44.579Z,41.72
2019-02-15T10:03:44.564Z,41.31
2019-02-15T10:04:44.576Z,40.78
2019-02-15T10:05:44.565Z,40.88
2019-02-15T10:06:44.539Z,40.16
2019-02-15T10:07:44.525Z,40.46
2019-02-15T10:08:44.512Z,40.16
2019-02-15T10:09:44.498Z,39.54
2019-02-15T10:10:44.525Z,39.34
2019-02-15T10:11:44.493Z,38.81
2019-02-15T10:12:44.471Z,39.12
2019-02-15T10:13:44.480Z,39.22
2019-02-15T10:14:44.445Z,39.22
2019-02-15T10:15:44.519Z,39.61
2019-02-15T10:16:44.427Z,38.59
2019-02-15T10:17:44.417Z,38.29
2019-02-15T10:18:44.402Z,38.29
2019-02-15T10:19:44.393Z,37.78
2019-02-15T10:20:44.378Z,38.59
2019-02-15T10:21:44.416Z,37.56
2019-02-15T10:22:44.362Z,37.26
2019-02-15T10:23:44.347Z,37.87
2019-02-15T10:24:44.339Z,37.34
2019-02-15T10:25:44.329Z,37.73
2019-02-15T10:26:44.312Z,36.30
2019-02-15T10:27:44.333Z,36.61
2019-02-15T10:28:44.296Z,36.30
2019-02-15T10:29:44.282Z,36.69
2019-02-15T10:30:44.291Z,36.08
2019-02-15T10:31:44.261Z,35.99
2019-02-15T10:32:44.250Z,34.85
2019-02-15T10:33:44.272Z,35.16
2019-02-15T10:34:44.231Z,34.75
2019-02-15T10:35:44.214Z,35.24
2019-02-15T10:36:44.210Z,34.33
2019-02-15T10:37:44.192Z,34.52
2019-02-15T10:38:44.217Z,34.11
2019-02-15T10:39:44.225Z,34.11
2019-02-15T10:40:44.245Z,33.80
2019-02-15T10:41:44.154Z,33.27
2019-02-15T10:42:44.156Z,32.75
2019-02-15T10:43:44.134Z,31.62
2019-02-15T10:44:44.187Z,31.20
2019-02-15T10:45:44.110Z,31.51
2019-02-15T10:46:44.098Z,31.81
2019-02-15T10:47:44.091Z,29.96
2019-02-15T10:48:44.070Z,30.66
2019-02-15T10:49:44.068Z,30.14
2019-02-15T10:50:44.087Z,29.42
2019-02-15T10:51:44.048Z,28.90
2019-02-15T10:52:44.035Z,28.37
2019-02-15T10:53:44.017Z,27.75
2019-02-15T10:54:44.079Z,28.57
2019-02-15T10:55:43.995Z,27.86
2019-02-15T10:56:43.993Z,27.97
2019-02-15T10:57:43.977Z,27.16
2019-02-15T10:58:44.015Z,27.76
2019-02-15T10:59:43.988Z,27.56
2019-02-15T11:00:43.957Z,27.55
2019-02-15T11:01:43.937Z,27.55
2019-02-15T11:02:43.936Z,26.52
2019-02-15T11:03:43.980Z,26.61
2019-02-15T11:04:43.934Z,26.50
2019-02-15T11:05:43.889Z,25.87
2019-02-15T11:06:43.877Z,24.88
2019-02-15T11:07:43.904Z,25.49
2019-02-15T11:08:43.854Z,26.41
2019-02-15T11:09:43.844Z,25.40
2019-02-15T11:10:43.837Z,25.92
2019-02-15T11:11:43.821Z,24.90
2019-02-15T11:12:43.834Z,25.00
2019-02-15T11:13:43.811Z,25.71
2019-02-15T11:14:43.791Z,25.90
2019-02-15T11:15:43.811Z,25.60
2019-02-15T11:16:47.207Z,24.89
2019-02-15T11:17:43.762Z,25.09
2019-02-15T11:18:43.752Z,25.99
2019-02-15T11:19:43.783Z,25.87
2019-02-15T11:20:43.723Z,24.87
2019-02-15T11:21:43.746Z,24.85
2019-02-15T11:22:43.717Z,24.26
2019-02-15T11:23:43.694Z,24.15
2019-02-15T11:24:43.749Z,23.74
2019-02-15T11:25:43.676Z,23.43
2019-02-15T11:26:43.706Z,23.74
2019-02-15T11:27:43.681Z,23.74
2019-02-15T11:28:43.634Z,23.23
2019-02-15T11:29:43.629Z,23.43
2019-02-15T11:30:43.618Z,22.72
2019-02-15T11:31:43.640Z,23.21
2019-02-15T11:32:43.600Z,22.39
2019-02-15T11:33:43.582Z,22.30
2019-02-15T11:34:43.577Z,22.22
2019-02-15T11:35:43.563Z,22.23
2019-02-15T11:36:43.574Z,22.23
2019-02-15T11:37:43.538Z,22.23
2019-02-15T11:38:43.528Z,22.14
2019-02-15T11:39:43.562Z,22.85
2019-02-15T11:40:43.543Z,22.06
2019-02-15T11:41:43.535Z,22.27
2019-02-15T11:42:43.494Z,22.67
2019-02-15T11:43:43.473Z,22.67
2019-02-15T11:44:43.473Z,22.56
2019-02-15T11:45:43.450Z,22.65
2019-02-15T11:46:56.693Z,21.75
2019-02-15T11:47:44.472Z,22.04
2019-02-15T11:48:43.423Z,22.03
2019-02-15T11:49:43.409Z,21.23
2019-02-15T11:50:43.401Z,21.42
2019-02-15T11:51:43.403Z,21.42
2019-02-15T11:52:43.377Z,21.64
2019-02-15T11:53:43.423Z,20.84
2019-02-15T11:54:43.354Z,20.84
2019-02-15T11:55:43.348Z,21.66
2019-02-15T11:56:43.340Z,22.37
2019-02-15T11:57:43.320Z,21.98
2019-02-15T11:58:43.324Z,21.88
2019-02-15T11:59:43.302Z,22.19
2019-02-15T12:00:43.293Z,21.80
2019-02-15T12:01:43.281Z,21.20
2019-02-15T12:02:43.277Z,22.31
2019-02-15T12:03:43.292Z,22.41
2019-02-15T12:04:43.248Z,21.09
2019-02-15T12:05:43.242Z,20.97
2019-02-15T12:06:43.231Z,20.95
2019-02-15T12:07:43.212Z,20.23
2019-02-15T12:08:43.305Z,19.92
2019-02-15T12:09:43.201Z,20.01
2019-02-15T12:10:43.191Z,20.53
2019-02-15T12:11:43.231Z,20.03
2019-02-15T12:12:43.165Z,21.25
2019-02-15T12:13:43.155Z,21.36
2019-02-15T12:14:43.163Z,20.75
2019-02-15T12:15:43.131Z,20.75
2019-02-15T12:16:43.150Z,20.14
2019-02-15T12:17:43.104Z,20.84
2019-02-15T12:18:43.101Z,20.43
2019-02-15T12:19:43.158Z,20.32
2019-02-15T12:20:43.097Z,20.21
2019-02-15T12:21:43.069Z,20.51
2019-02-15T12:22:43.052Z,22.24
2019-02-15T12:23:43.063Z,21.95
2019-02-15T12:24:43.116Z,22.55
2019-02-15T12:25:43.038Z,22.34
2019-02-15T12:26:43.011Z,22.04
2019-02-15T12:27:43.005Z,22.33
2019-02-15T12:28:42.996Z,22.13
2019-02-15T12:29:42.976Z,21.84
2019-02-15T12:30:42.982Z,21.95
2019-02-15T12:31:42.960Z,22.56
2019-02-15T12:32:42.947Z,22.46
2019-02-15T12:33:42.940Z,22.26
2019-02-15T12:34:42.930Z,22.26
2019-02-15T12:35:42.948Z,21.96
2019-02-15T12:36:43.106Z,22.56
2019-02-15T12:37:42.890Z,21.96
2019-02-15T12:38:42.919Z,22.66
2019-02-15T12:39:42.874Z,22.76
2019-02-15T12:40:42.889Z,23.27
2019-02-15T12:41:42.885Z,23.60
2019-02-15T12:42:42.842Z,23.61
2019-02-15T12:43:42.826Z,23.41
2019-02-15T12:44:42.819Z,22.89
2019-02-15T12:45:42.839Z,22.69
2019-02-15T12:46:42.794Z,23.10
2019-02-15T12:47:42.859Z,23.72
2019-02-15T12:48:42.774Z,23.53
2019-02-15T12:49:42.771Z,24.04
2019-02-15T12:50:42.750Z,23.65
2019-02-15T12:51:42.746Z,23.35
2019-02-15T12:52:42.874Z,23.85